ADDS METAR Data INFO
IDs: Format: Raw Decoded Include TAF

Data at: 0217 UTC 18 Jan 2018

METAR for:K6B9 (Skaneateles Arpt, NY, US)
Text:K6B9 180215Z AUTO 22005KT 10SM CLR M11/M14 A3014 RMK AO2
Temperature:-11.0°C ( 12°F)
Dewpoint:-14.0°C ( 7°F) [RH = 78%]
Pressure (altimeter):30.14 inches Hg (1020.7 mb)
Winds:from the SW (220 degrees) at 6 MPH (5 knots; 2.6 m/s)
Visibility:10 or more sm (16+ km)
Ceiling:at least 12,000 feet AGL
Clouds:sky clear below 12,000 feet AGL
QC Flag:automated observation with no human augmentation
Text:K6B9 180155Z AUTO 21005KT 10SM CLR M13/M15 A3015 RMK AO2
Temperature:-13.0°C ( 9°F)
Dewpoint:-15.0°C ( 5°F) [RH = 85%]
Pressure (altimeter):30.15 inches Hg (1021.1 mb)
Winds:from the SSW (210 degrees) at 6 MPH (5 knots; 2.6 m/s)
Visibility:10 or more sm (16+ km)
Ceiling:at least 12,000 feet AGL
Clouds:sky clear below 12,000 feet AGL
QC Flag:automated observation with no human augmentation
Text:K6B9 180135Z AUTO 22006KT 10SM CLR M12/M15 A3016 RMK AO2
Temperature:-12.0°C ( 10°F)
Dewpoint:-15.0°C ( 5°F) [RH = 78%]
Pressure (altimeter):30.16 inches Hg (1021.4 mb)
Winds:from the SW (220 degrees) at 7 MPH (6 knots; 3.1 m/s)
Visibility:10 or more sm (16+ km)
Ceiling:at least 12,000 feet AGL
Clouds:sky clear below 12,000 feet AGL
QC Flag:automated observation with no human augmentation
Text:K6B9 180115Z AUTO 22004KT 10SM CLR M13/M15 A3017 RMK AO2
Temperature:-13.0°C ( 9°F)
Dewpoint:-15.0°C ( 5°F) [RH = 85%]
Pressure (altimeter):30.17 inches Hg (1021.8 mb)
Winds:from the SW (220 degrees) at 5 MPH (4 knots; 2.1 m/s)
Visibility:10 or more sm (16+ km)
Ceiling:at least 12,000 feet AGL
Clouds:sky clear below 12,000 feet AGL
QC Flag:automated observation with no human augmentation
Text:K6B9 180055Z AUTO 21004KT 10SM CLR M14/M16 A3018 RMK AO2
Temperature:-14.0°C ( 7°F)
Dewpoint:-16.0°C ( 3°F) [RH = 85%]
Pressure (altimeter):30.18 inches Hg (1022.1 mb)
Winds:from the SSW (210 degrees) at 5 MPH (4 knots; 2.1 m/s)
Visibility:10 or more sm (16+ km)
Ceiling:at least 12,000 feet AGL
Clouds:sky clear below 12,000 feet AGL
QC Flag:automated observation with no human augmentation
Text:K6B9 180035Z AUTO 00000KT 10SM CLR M14/M16 A3019 RMK AO2
Temperature:-14.0°C ( 7°F)
Dewpoint:-16.0°C ( 3°F) [RH = 85%]
Pressure (altimeter):30.19 inches Hg (1022.4 mb)
Winds:calm
Visibility:10 or more sm (16+ km)
Ceiling:at least 12,000 feet AGL
Clouds:sky clear below 12,000 feet AGL
QC Flag:automated observation with no human augmentation
Text:K6B9 180015Z AUTO 22004KT 10SM CLR M12/M15 A3020 RMK AO2
Temperature:-12.0°C ( 10°F)
Dewpoint:-15.0°C ( 5°F) [RH = 78%]
Pressure (altimeter):30.20 inches Hg (1022.8 mb)
Winds:from the SW (220 degrees) at 5 MPH (4 knots; 2.1 m/s)
Visibility:10 or more sm (16+ km)
Ceiling:at least 12,000 feet AGL
Clouds:sky clear below 12,000 feet AGL
QC Flag:automated observation with no human augmentation
Text:K6B9 172355Z AUTO 22005KT 10SM CLR M11/M15 A3021 RMK AO2
Temperature:-11.0°C ( 12°F)
Dewpoint:-15.0°C ( 5°F) [RH = 72%]
Pressure (altimeter):30.21 inches Hg (1023.1 mb)
Winds:from the SW (220 degrees) at 6 MPH (5 knots; 2.6 m/s)
Visibility:10 or more sm (16+ km)
Ceiling:at least 12,000 feet AGL
Clouds:sky clear below 12,000 feet AGL
QC Flag:automated observation with no human augmentation
Text:K6B9 172335Z AUTO 23004KT 10SM CLR M11/M14 A3022 RMK AO2
Temperature:-11.0°C ( 12°F)
Dewpoint:-14.0°C ( 7°F) [RH = 78%]
Pressure (altimeter):30.22 inches Hg (1023.5 mb)
Winds:from the SW (230 degrees) at 5 MPH (4 knots; 2.1 m/s)
Visibility:10 or more sm (16+ km)
Ceiling:at least 12,000 feet AGL
Clouds:sky clear below 12,000 feet AGL
QC Flag:automated observation with no human augmentation
Text:K6B9 172315Z AUTO 25005KT 10SM CLR M10/M14 A3023 RMK AO2
Temperature:-10.0°C ( 14°F)
Dewpoint:-14.0°C ( 7°F) [RH = 72%]
Pressure (altimeter):30.23 inches Hg (1023.8 mb)
Winds:from the WSW (250 degrees) at 6 MPH (5 knots; 2.6 m/s)
Visibility:10 or more sm (16+ km)
Ceiling:at least 12,000 feet AGL
Clouds:sky clear below 12,000 feet AGL
QC Flag:automated observation with no human augmentation
Text:K6B9 172255Z AUTO 25006KT 10SM CLR M10/M14 A3023 RMK AO2
Temperature:-10.0°C ( 14°F)
Dewpoint:-14.0°C ( 7°F) [RH = 72%]
Pressure (altimeter):30.23 inches Hg (1023.8 mb)
Winds:from the WSW (250 degrees) at 7 MPH (6 knots; 3.1 m/s)
Visibility:10 or more sm (16+ km)
Ceiling:at least 12,000 feet AGL
Clouds:sky clear below 12,000 feet AGL
QC Flag:automated observation with no human augmentation
Text:K6B9 172235Z AUTO 26006KT 10SM CLR M10/M14 A3023 RMK AO2
Temperature:-10.0°C ( 14°F)
Dewpoint:-14.0°C ( 7°F) [RH = 72%]
Pressure (altimeter):30.23 inches Hg (1023.8 mb)
Winds:from the W (260 degrees) at 7 MPH (6 knots; 3.1 m/s)
Visibility:10 or more sm (16+ km)
Ceiling:at least 12,000 feet AGL
Clouds:sky clear below 12,000 feet AGL
QC Flag:automated observation with no human augmentation
Text:K6B9 172215Z AUTO VRB06G12KT 230V310 10SM CLR M09/M14 A3023 RMK AO2
Temperature: -9.0°C ( 16°F)
Dewpoint:-14.0°C ( 7°F) [RH = 67%]
Pressure (altimeter):30.23 inches Hg (1023.8 mb)
Winds:variable direction winds at 7 MPH (6 knots; 3.1 m/s) gusting to 14 MPH (12 knots; 6.2 m/s)
Visibility:10 or more sm (16+ km)
Ceiling:at least 12,000 feet AGL
Clouds:sky clear below 12,000 feet AGL
QC Flag:automated observation with no human augmentation
Text:K6B9 172155Z AUTO 27007G12KT 240V310 10SM CLR M09/M13 A3024 RMK AO2
Temperature: -9.0°C ( 16°F)
Dewpoint:-13.0°C ( 9°F) [RH = 73%]
Pressure (altimeter):30.24 inches Hg (1024.1 mb)
Winds:from the W (270 degrees) at 8 MPH (7 knots; 3.6 m/s) gusting to 14 MPH (12 knots; 6.2 m/s)
Visibility:10 or more sm (16+ km)
Ceiling:at least 12,000 feet AGL
Clouds:sky clear below 12,000 feet AGL
QC Flag:automated observation with no human augmentation
Text:K6B9 172135Z AUTO VRB06G14KT 10SM CLR M09/M13 A3024 RMK AO2
Temperature: -9.0°C ( 16°F)
Dewpoint:-13.0°C ( 9°F) [RH = 73%]
Pressure (altimeter):30.24 inches Hg (1024.1 mb)
Winds:variable direction winds at 7 MPH (6 knots; 3.1 m/s) gusting to 16 MPH (14 knots; 7.2 m/s)
Visibility:10 or more sm (16+ km)
Ceiling:at least 12,000 feet AGL
Clouds:sky clear below 12,000 feet AGL
QC Flag:automated observation with no human augmentation
Text:K6B9 172115Z AUTO 25009KT 220V280 10SM CLR M08/M13 A3024 RMK AO2
Temperature: -8.0°C ( 18°F)
Dewpoint:-13.0°C ( 9°F) [RH = 67%]
Pressure (altimeter):30.24 inches Hg (1024.1 mb)
Winds:from the WSW (250 degrees) at 10 MPH (9 knots; 4.6 m/s)
Visibility:10 or more sm (16+ km)
Ceiling:at least 12,000 feet AGL
Clouds:sky clear below 12,000 feet AGL
QC Flag:automated observation with no human augmentation
Text:K6B9 172055Z AUTO 25006KT 10SM CLR M08/M13 A3025 RMK AO2
Temperature: -8.0°C ( 18°F)
Dewpoint:-13.0°C ( 9°F) [RH = 67%]
Pressure (altimeter):30.25 inches Hg (1024.5 mb)
Winds:from the WSW (250 degrees) at 7 MPH (6 knots; 3.1 m/s)
Visibility:10 or more sm (16+ km)
Ceiling:at least 12,000 feet AGL
Clouds:sky clear below 12,000 feet AGL
QC Flag:automated observation with no human augmentation
Text:K6B9 172035Z AUTO 24006KT 10SM FEW032 M08/M13 A3025 RMK AO2
Temperature: -8.0°C ( 18°F)
Dewpoint:-13.0°C ( 9°F) [RH = 67%]
Pressure (altimeter):30.25 inches Hg (1024.5 mb)
Winds:from the WSW (240 degrees) at 7 MPH (6 knots; 3.1 m/s)
Visibility:10 or more sm (16+ km)
Ceiling:at least 12,000 feet AGL
Clouds: few clouds at 3200 feet AGL
QC Flag:automated observation with no human augmentation
Text:K6B9 172015Z AUTO 24005KT 10SM BKN032 BKN042 M08/M12 A3025 RMK AO2
Temperature: -8.0°C ( 18°F)
Dewpoint:-12.0°C ( 10°F) [RH = 73%]
Pressure (altimeter):30.25 inches Hg (1024.5 mb)
Winds:from the WSW (240 degrees) at 6 MPH (5 knots; 2.6 m/s)
Visibility:10 or more sm (16+ km)
Ceiling:3200 feet AGL
Clouds: broken clouds at 3200 feet AGL, broken clouds at 4200 feet AGL
QC Flag:automated observation with no human augmentation
Text:K6B9 171955Z AUTO 25006KT 10SM FEW025 BKN029 OVC041 M08/M12 A3025 RMK AO2
Temperature: -8.0°C ( 18°F)
Dewpoint:-12.0°C ( 10°F) [RH = 73%]
Pressure (altimeter):30.25 inches Hg (1024.5 mb)
Winds:from the WSW (250 degrees) at 7 MPH (6 knots; 3.1 m/s)
Visibility:10 or more sm (16+ km)
Ceiling:2900 feet AGL
Clouds: few clouds at 2500 feet AGL, broken clouds at 2900 feet AGL, overcast cloud deck at 4100 feet AGL
QC Flag:automated observation with no human augmentation
Text:K6B9 171935Z AUTO 26007KT 10SM SCT023 OVC029 M08/M13 A3026 RMK AO2
Temperature: -8.0°C ( 18°F)
Dewpoint:-13.0°C ( 9°F) [RH = 67%]
Pressure (altimeter):30.26 inches Hg (1024.8 mb)
Winds:from the W (260 degrees) at 8 MPH (7 knots; 3.6 m/s)
Visibility:10 or more sm (16+ km)
Ceiling:2900 feet AGL
Clouds: scattered clouds at 2300 feet AGL, overcast cloud deck at 2900 feet AGL
QC Flag:automated observation with no human augmentation
Text:K6B9 171915Z AUTO 24007KT 10SM SCT023 OVC030 M09/M13 A3027 RMK AO2
Temperature: -9.0°C ( 16°F)
Dewpoint:-13.0°C ( 9°F) [RH = 73%]
Pressure (altimeter):30.27 inches Hg (1025.1 mb)
Winds:from the WSW (240 degrees) at 8 MPH (7 knots; 3.6 m/s)
Visibility:10 or more sm (16+ km)
Ceiling:3000 feet AGL
Clouds: scattered clouds at 2300 feet AGL, overcast cloud deck at 3000 feet AGL
QC Flag:automated observation with no human augmentation
Text:K6B9 171855Z AUTO 23007KT 10SM FEW023 OVC029 M09/M13 A3027 RMK AO2
Temperature: -9.0°C ( 16°F)
Dewpoint:-13.0°C ( 9°F) [RH = 73%]
Pressure (altimeter):30.27 inches Hg (1025.1 mb)
Winds:from the SW (230 degrees) at 8 MPH (7 knots; 3.6 m/s)
Visibility:10 or more sm (16+ km)
Ceiling:2900 feet AGL
Clouds: few clouds at 2300 feet AGL, overcast cloud deck at 2900 feet AGL
QC Flag:automated observation with no human augmentation
Text:K6B9 171835Z AUTO 24008KT 7SM -SN SCT024 BKN030 OVC035 M09/M12 A3027 RMK AO2
Temperature: -9.0°C ( 16°F)
Dewpoint:-12.0°C ( 10°F) [RH = 79%]
Pressure (altimeter):30.27 inches Hg (1025.1 mb)
Winds:from the WSW (240 degrees) at 9 MPH (8 knots; 4.1 m/s)
Visibility: 7 sm ( 11 km)
Ceiling:3000 feet AGL
Clouds: scattered clouds at 2400 feet AGL, broken clouds at 3000 feet AGL, overcast cloud deck at 3500 feet AGL
Weather:-SN (light snow)
QC Flag:automated observation with no human augmentation
Text:K6B9 171815Z AUTO 22007G13KT 6SM -SN FEW021 BKN028 OVC036 M09/M13 A3028 RMK AO2
Temperature: -9.0°C ( 16°F)
Dewpoint:-13.0°C ( 9°F) [RH = 73%]
Pressure (altimeter):30.28 inches Hg (1025.5 mb)
Winds:from the SW (220 degrees) at 8 MPH (7 knots; 3.6 m/s) gusting to 15 MPH (13 knots; 6.7 m/s)
Visibility: 6 sm ( 10 km)
Ceiling:2800 feet AGL
Clouds: few clouds at 2100 feet AGL, broken clouds at 2800 feet AGL, overcast cloud deck at 3600 feet AGL
Weather:-SN (light snow)
QC Flag:automated observation with no human augmentation
Text:K6B9 171755Z AUTO 24009KT 10SM SCT022 BKN027 OVC032 M09/M13 A3029 RMK AO2
Temperature: -9.0°C ( 16°F)
Dewpoint:-13.0°C ( 9°F) [RH = 73%]
Pressure (altimeter):30.29 inches Hg (1025.8 mb)
Winds:from the WSW (240 degrees) at 10 MPH (9 knots; 4.6 m/s)
Visibility:10 or more sm (16+ km)
Ceiling:2700 feet AGL
Clouds: scattered clouds at 2200 feet AGL, broken clouds at 2700 feet AGL, overcast cloud deck at 3200 feet AGL
QC Flag:automated observation with no human augmentation
Text:K6B9 171735Z AUTO 25009KT 10SM SCT019 OVC024 M09/M13 A3029 RMK AO2
Temperature: -9.0°C ( 16°F)
Dewpoint:-13.0°C ( 9°F) [RH = 73%]
Pressure (altimeter):30.29 inches Hg (1025.8 mb)
Winds:from the WSW (250 degrees) at 10 MPH (9 knots; 4.6 m/s)
Visibility:10 or more sm (16+ km)
Ceiling:2400 feet AGL
Clouds: scattered clouds at 1900 feet AGL, overcast cloud deck at 2400 feet AGL
QC Flag:automated observation with no human augmentation
Text:K6B9 171715Z AUTO 24009KT 10SM -SN BKN019 BKN025 M09/M14 A3030 RMK AO2
Temperature: -9.0°C ( 16°F)
Dewpoint:-14.0°C ( 7°F) [RH = 67%]
Pressure (altimeter):30.30 inches Hg (1026.2 mb)
Winds:from the WSW (240 degrees) at 10 MPH (9 knots; 4.6 m/s)
Visibility:10 or more sm (16+ km)
Ceiling:1900 feet AGL
Clouds: broken clouds at 1900 feet AGL, broken clouds at 2500 feet AGL
Weather:-SN (light snow)
QC Flag:automated observation with no human augmentation
Text:K6B9 171655Z AUTO VRB06G14KT 10SM SCT018 SCT024 M09/M14 A3032 RMK AO2
Temperature: -9.0°C ( 16°F)
Dewpoint:-14.0°C ( 7°F) [RH = 67%]
Pressure (altimeter):30.32 inches Hg (1026.8 mb)
Winds:variable direction winds at 7 MPH (6 knots; 3.1 m/s) gusting to 16 MPH (14 knots; 7.2 m/s)
Visibility:10 or more sm (16+ km)
Ceiling:at least 12,000 feet AGL
Clouds: scattered clouds at 1800 feet AGL, scattered clouds at 2400 feet AGL
QC Flag:automated observation with no human augmentation
Text:K6B9 171635Z AUTO 25010KT 10SM SCT038 M09/M14 A3033 RMK AO2
Temperature: -9.0°C ( 16°F)
Dewpoint:-14.0°C ( 7°F) [RH = 67%]
Pressure (altimeter):30.33 inches Hg (1027.2 mb)
Winds:from the WSW (250 degrees) at 12 MPH (10 knots; 5.1 m/s)
Visibility:10 or more sm (16+ km)
Ceiling:at least 12,000 feet AGL
Clouds: scattered clouds at 3800 feet AGL
QC Flag:automated observation with no human augmentation
Text:K6B9 171615Z AUTO 25008G13KT 10SM OVC039 M10/M14 A3034 RMK AO2
Temperature:-10.0°C ( 14°F)
Dewpoint:-14.0°C ( 7°F) [RH = 72%]
Pressure (altimeter):30.34 inches Hg (1027.5 mb)
Winds:from the WSW (250 degrees) at 9 MPH (8 knots; 4.1 m/s) gusting to 15 MPH (13 knots; 6.7 m/s)
Visibility:10 or more sm (16+ km)
Ceiling:3900 feet AGL
Clouds: overcast cloud deck at 3900 feet AGL
QC Flag:automated observation with no human augmentation
Text:K6B9 171555Z AUTO 25008G14KT 230V300 10SM OVC043 M10/M14 A3035 RMK AO2
Temperature:-10.0°C ( 14°F)
Dewpoint:-14.0°C ( 7°F) [RH = 72%]
Pressure (altimeter):30.35 inches Hg (1027.9 mb)
Winds:from the WSW (250 degrees) at 9 MPH (8 knots; 4.1 m/s) gusting to 16 MPH (14 knots; 7.2 m/s)
Visibility:10 or more sm (16+ km)
Ceiling:4300 feet AGL
Clouds: overcast cloud deck at 4300 feet AGL
QC Flag:automated observation with no human augmentation
Text:K6B9 171535Z AUTO 24008G13KT 10SM SCT037 OVC044 M10/M14 A3035 RMK AO2
Temperature:-10.0°C ( 14°F)
Dewpoint:-14.0°C ( 7°F) [RH = 72%]
Pressure (altimeter):30.35 inches Hg (1027.9 mb)
Winds:from the WSW (240 degrees) at 9 MPH (8 knots; 4.1 m/s) gusting to 15 MPH (13 knots; 6.7 m/s)
Visibility:10 or more sm (16+ km)
Ceiling:4400 feet AGL
Clouds: scattered clouds at 3700 feet AGL, overcast cloud deck at 4400 feet AGL
QC Flag:automated observation with no human augmentation
Text:K6B9 171515Z AUTO 23009KT 9SM FEW030 OVC037 M10/M14 A3035 RMK AO2
Temperature:-10.0°C ( 14°F)
Dewpoint:-14.0°C ( 7°F) [RH = 72%]
Pressure (altimeter):30.35 inches Hg (1027.9 mb)
Winds:from the SW (230 degrees) at 10 MPH (9 knots; 4.6 m/s)
Visibility: 9 sm ( 14 km)
Ceiling:3700 feet AGL
Clouds: few clouds at 3000 feet AGL, overcast cloud deck at 3700 feet AGL
QC Flag:automated observation with no human augmentation
Text:K6B9 171455Z AUTO 24007KT 4SM -SN FEW030 SCT038 BKN046 M10/M13 A3034 RMK AO2
Temperature:-10.0°C ( 14°F)
Dewpoint:-13.0°C ( 9°F) [RH = 79%]
Pressure (altimeter):30.34 inches Hg (1027.5 mb)
Winds:from the WSW (240 degrees) at 8 MPH (7 knots; 3.6 m/s)
Visibility: 4 sm ( 6 km)
Ceiling:4600 feet AGL
Clouds: few clouds at 3000 feet AGL, scattered clouds at 3800 feet AGL, broken clouds at 4600 feet AGL
Weather:-SN (light snow)
QC Flag:automated observation with no human augmentation
Text:K6B9 171435Z AUTO VRB07KT 240V300 2SM -SN SCT036 M10/M13 A3034 RMK AO2
Temperature:-10.0°C ( 14°F)
Dewpoint:-13.0°C ( 9°F) [RH = 79%]
Pressure (altimeter):30.34 inches Hg (1027.5 mb)
Winds:variable direction winds at 8 MPH (7 knots; 3.6 m/s)
Visibility: 2.00 sm ( 3.22 km)
Ceiling:at least 12,000 feet AGL
Clouds: scattered clouds at 3600 feet AGL
Weather:-SN (light snow)
QC Flag:automated observation with no human augmentation